createdAt,value
2018-06-18T00:00:41.882Z,68.88
2018-06-18T00:03:11.846Z,67.86
2018-06-18T00:05:41.482Z,67.32
2018-06-18T00:08:11.306Z,66.05
2018-06-18T00:10:41.090Z,66.38
2018-06-18T00:13:10.783Z,66.12
2018-06-18T00:15:40.534Z,65.46
2018-06-18T00:18:10.210Z,65.13
2018-06-18T00:20:39.982Z,64.24
2018-06-18T00:23:09.792Z,63.64
2018-06-18T00:25:39.504Z,63.57
2018-06-18T00:28:09.444Z,63.05
2018-06-18T00:30:39.193Z,64.69
2018-06-18T00:33:08.892Z,66.02
2018-06-18T00:35:38.601Z,64.50
2018-06-18T00:38:08.451Z,63.92
2018-06-18T00:40:38.120Z,63.52
2018-06-18T00:43:08.776Z,63.55
2018-06-18T00:45:38.792Z,63.56
2018-06-18T00:48:08.496Z,63.92
2018-06-18T00:50:38.216Z,65.01
2018-06-18T00:53:09.022Z,64.44
2018-06-18T00:55:49.360Z,63.46
2018-06-18T00:58:19.100Z,62.84
2018-06-18T01:00:49.013Z,63.00
2018-06-18T01:03:19.495Z,62.64
2018-06-18T01:05:49.786Z,62.52
2018-06-18T01:08:19.585Z,63.00
2018-06-18T01:10:49.453Z,62.97
2018-06-18T01:13:20.079Z,64.17
2018-06-18T01:15:49.933Z,64.10
2018-06-18T01:18:19.758Z,63.16
2018-06-18T01:20:49.476Z,65.92
2018-06-18T01:23:29.333Z,64.98
2018-06-18T01:25:59.102Z,63.88
2018-06-18T01:28:28.921Z,62.97
2018-06-18T01:30:58.623Z,64.61
2018-06-18T01:33:28.502Z,65.28
2018-06-18T01:35:58.269Z,64.58
2018-06-18T01:38:28.181Z,66.17
2018-06-18T01:40:58.094Z,64.61
2018-06-18T01:43:27.985Z,64.42
2018-06-18T01:45:58.532Z,63.88
2018-06-18T01:48:29.056Z,65.16
2018-06-18T01:50:59.588Z,64.35
2018-06-18T01:53:31.953Z,64.50
2018-06-18T01:56:02.798Z,64.27
2018-06-18T01:58:32.583Z,64.21
2018-06-18T02:01:03.167Z,63.41
2018-06-18T02:03:32.929Z,62.60
2018-06-18T02:06:02.665Z,63.42
2018-06-18T02:08:32.434Z,62.37
2018-06-18T02:11:02.215Z,62.78
2018-06-18T02:13:35.641Z,63.06
2018-06-18T02:16:05.457Z,64.44
2018-06-18T02:18:35.228Z,65.58
2018-06-18T02:21:04.980Z,64.55
2018-06-18T02:23:35.281Z,64.49
2018-06-18T02:26:04.912Z,64.64
2018-06-18T02:28:39.733Z,64.24
2018-06-18T02:31:14.577Z,65.68
2018-06-18T02:33:50.125Z,64.75
2018-06-18T02:36:24.903Z,64.56
2018-06-18T02:39:11.524Z,63.92
2018-06-18T02:41:41.830Z,64.36
2018-06-18T02:44:11.528Z,63.22
2018-06-18T02:46:41.633Z,63.16
2018-06-18T02:49:11.408Z,63.33
2018-06-18T02:51:41.132Z,63.91
2018-06-18T02:54:11.066Z,63.06
2018-06-18T02:56:51.547Z,64.35
2018-06-18T02:59:21.315Z,63.75
2018-06-18T03:01:52.340Z,63.06
2018-06-18T03:04:22.076Z,63.08
2018-06-18T03:06:51.752Z,64.21
2018-06-18T03:09:22.244Z,63.63
2018-06-18T03:11:53.126Z,62.88
2018-06-18T03:14:22.800Z,61.89
2018-06-18T03:16:52.520Z,65.08
2018-06-18T03:19:27.135Z,65.50
2018-06-18T03:22:02.472Z,65.45
2018-06-18T03:26:40.464Z,69.92
2018-06-18T03:29:15.931Z,72.93
2018-06-18T03:31:46.677Z,70.20
2018-06-18T03:34:16.518Z,70.63
2018-06-18T03:36:47.095Z,72.21
2018-06-18T03:39:16.925Z,71.20
2018-06-18T03:41:48.712Z,69.66
2018-06-18T03:44:39.679Z,68.45
2018-06-18T03:47:17.920Z,65.81
2018-06-18T03:49:47.624Z,65.41
2018-06-18T03:52:17.556Z,68.21
2018-06-18T03:54:47.374Z,69.25
2018-06-18T03:57:17.468Z,71.17
2018-06-18T03:59:47.121Z,69.94
2018-06-18T04:02:42.913Z,72.72
2018-06-18T04:05:17.669Z,71.66
2018-06-18T04:07:52.388Z,71.06
2018-06-18T04:10:27.104Z,71.95
2018-06-18T04:12:56.699Z,73.50
2018-06-18T04:15:26.406Z,72.56
2018-06-18T04:17:56.143Z,72.67
2018-06-18T04:20:28.153Z,71.13
2018-06-18T04:22:57.765Z,69.88
2018-06-18T04:25:27.534Z,70.78
2018-06-18T04:27:57.257Z,70.89
2018-06-18T04:30:28.333Z,69.01
2018-06-18T04:32:58.044Z,67.28
2018-06-18T04:35:27.846Z,68.37
2018-06-18T04:37:57.620Z,66.54
2018-06-18T04:40:28.432Z,66.06
2018-06-18T04:43:03.120Z,65.65
2018-06-18T04:45:37.885Z,65.33
2018-06-18T04:48:12.934Z,64.28
2018-06-18T04:50:49.582Z,63.32
2018-06-18T04:53:19.371Z,64.04
2018-06-18T04:55:49.467Z,63.52
2018-06-18T04:58:19.218Z,66.50
2018-06-18T05:01:32.780Z,66.48
2018-06-18T05:04:02.519Z,65.01
2018-06-18T05:06:32.912Z,64.85
2018-06-18T05:09:22.882Z,63.14
2018-06-18T05:11:52.626Z,64.34
2018-06-18T05:14:22.404Z,63.74
2018-06-18T05:16:52.243Z,64.94
2018-06-18T05:19:22.055Z,63.66
2018-06-18T05:21:51.853Z,63.25
2018-06-18T05:24:21.500Z,64.94
2018-06-18T05:26:53.597Z,63.83
2018-06-18T05:29:26.168Z,61.98
2018-06-18T05:31:55.692Z,62.11
2018-06-18T05:34:29.858Z,62.56
2018-06-18T05:37:01.904Z,61.60
2018-06-18T05:39:32.592Z,61.09
2018-06-18T05:42:02.383Z,62.60
2018-06-18T05:44:32.224Z,62.83
2018-06-18T05:47:01.977Z,60.96
2018-06-18T05:49:32.008Z,61.26
2018-06-18T05:52:01.696Z,58.94
2018-06-18T05:54:31.447Z,58.87
2018-06-18T05:57:01.301Z,59.41
2018-06-18T05:59:31.208Z,58.53
2018-06-18T06:02:00.872Z,59.09
2018-06-18T06:04:30.540Z,58.64
2018-06-18T06:07:00.260Z,58.01
2018-06-18T06:09:29.823Z,59.76
2018-06-18T06:11:59.501Z,57.20
2018-06-18T06:14:29.206Z,57.54
2018-06-18T06:16:58.932Z,56.24
2018-06-18T06:19:28.587Z,56.90
2018-06-18T06:21:58.467Z,56.78
2018-06-18T06:24:28.125Z,53.67
2018-06-18T06:26:57.991Z,53.00
2018-06-18T06:29:27.809Z,54.46
2018-06-18T06:31:57.645Z,53.55
2018-06-18T06:34:27.322Z,55.60
2018-06-18T06:36:57.055Z,56.02
2018-06-18T06:39:26.708Z,54.43
2018-06-18T06:42:02.309Z,51.19
2018-06-18T06:44:32.120Z,50.74
2018-06-18T06:47:01.886Z,50.59
2018-06-18T06:49:32.091Z,49.91
2018-06-18T06:52:02.071Z,50.24
2018-06-18T06:54:31.809Z,48.16
2018-06-18T06:57:01.419Z,47.64
2018-06-18T06:59:31.150Z,46.71
2018-06-18T07:02:00.851Z,44.75
2018-06-18T07:04:30.600Z,46.18
2018-06-18T07:07:00.241Z,46.38
2018-06-18T07:09:30.081Z,46.17
2018-06-18T07:11:59.748Z,46.54
2018-06-18T07:14:29.379Z,48.43
2018-06-18T07:16:59.147Z,48.20
2018-06-18T07:19:28.780Z,47.28
2018-06-18T07:21:58.316Z,46.94
2018-06-18T07:24:28.088Z,46.44
2018-06-18T07:26:57.832Z,46.77
2018-06-18T07:29:27.475Z,49.40
2018-06-18T07:31:57.212Z,47.26
2018-06-18T07:34:26.915Z,44.87
2018-06-18T07:36:56.525Z,44.36
2018-06-18T07:39:26.315Z,44.11
2018-06-18T07:41:56.024Z,46.00
2018-06-18T07:44:25.748Z,45.72
2018-06-18T07:46:55.155Z,46.28
2018-06-18T07:49:24.781Z,48.34
2018-06-18T07:51:54.444Z,48.97
2018-06-18T07:54:24.484Z,44.26
2018-06-18T07:56:54.316Z,47.63
2018-06-18T07:59:25.091Z,49.17
2018-06-18T08:01:54.837Z,49.13
2018-06-18T08:04:25.128Z,44.21
2018-06-18T08:06:54.780Z,43.98
2018-06-18T08:09:24.475Z,45.18
2018-06-18T08:11:54.142Z,42.88
2018-06-18T08:14:23.717Z,42.76
2018-06-18T08:16:53.487Z,40.50
2018-06-18T08:19:23.217Z,41.41
2018-06-18T08:21:53.061Z,40.80
2018-06-18T08:24:22.794Z,41.14
2018-06-18T08:26:52.625Z,41.83
2018-06-18T08:29:22.266Z,40.58
2018-06-18T08:31:51.944Z,40.77
2018-06-18T08:34:21.647Z,42.25
2018-06-18T08:36:51.313Z,42.96
2018-06-18T08:39:20.968Z,43.15
2018-06-18T08:41:50.770Z,42.33
2018-06-18T08:44:20.428Z,39.34
2018-06-18T08:46:49.993Z,38.15
2018-06-18T08:49:19.722Z,39.24
2018-06-18T08:51:54.725Z,41.46
2018-06-18T08:54:29.469Z,43.48
2018-06-18T08:57:04.478Z,44.22
2018-06-18T08:59:39.631Z,46.58
2018-06-18T09:02:09.389Z,45.39
2018-06-18T09:04:45.349Z,46.51
2018-06-18T09:07:18.269Z,45.95
2018-06-18T09:09:48.169Z,46.20
2018-06-18T09:12:17.879Z,46.92
2018-06-18T09:14:47.601Z,46.71
2018-06-18T09:17:17.396Z,45.36
2018-06-18T09:19:47.070Z,45.26
2018-06-18T09:22:16.785Z,45.06
2018-06-18T09:24:46.426Z,46.30
2018-06-18T09:27:16.041Z,46.37
2018-06-18T09:29:50.697Z,47.05
2018-06-18T09:32:20.516Z,47.33
2018-06-18T09:34:50.232Z,49.10
2018-06-18T09:37:19.992Z,49.59
2018-06-18T09:39:50.418Z,49.40
2018-06-18T09:42:20.160Z,49.05
2018-06-18T09:44:50.054Z,48.82
2018-06-18T09:47:19.639Z,43.79
2018-06-18T09:49:54.207Z,42.91
2018-06-18T09:52:28.971Z,41.25
2018-06-18T09:55:03.693Z,40.87
2018-06-18T09:57:38.762Z,41.63
2018-06-18T10:01:19.926Z,37.81
2018-06-18T10:03:49.586Z,36.84
2018-06-18T10:06:19.547Z,33.41
2018-06-18T10:08:49.245Z,33.21
2018-06-18T10:11:18.819Z,32.52
2018-06-18T10:13:48.484Z,32.29
2018-06-18T10:16:18.149Z,32.60
2018-06-18T10:18:47.884Z,32.92
2018-06-18T10:21:17.607Z,32.77
2018-06-18T10:23:47.329Z,34.37
2018-06-18T10:26:17.133Z,33.15
2018-06-18T10:28:46.812Z,34.90
2018-06-18T10:31:16.479Z,31.28
2018-06-18T10:33:51.270Z,32.73
2018-06-18T10:36:26.169Z,33.27
2018-06-18T10:39:01.992Z,33.47
2018-06-18T10:41:37.449Z,32.35
2018-06-18T10:44:08.058Z,31.52
2018-06-18T10:46:38.669Z,32.52
2018-06-18T10:49:09.406Z,32.97
2018-06-18T10:51:39.713Z,32.54
2018-06-18T10:54:10.289Z,32.60
2018-06-18T10:56:40.731Z,31.54
2018-06-18T10:59:12.089Z,33.45
2018-06-18T11:01:42.343Z,33.29
2018-06-18T11:04:17.470Z,33.46
2018-06-18T11:06:47.839Z,31.88
2018-06-18T11:09:18.197Z,30.51
2018-06-18T11:11:48.631Z,29.79
2018-06-18T11:14:19.298Z,30.83
2018-06-18T11:17:52.227Z,31.06
2018-06-18T11:20:26.853Z,33.21
2018-06-18T11:23:01.661Z,33.45
2018-06-18T11:25:36.613Z,35.49
2018-06-18T11:28:06.511Z,35.49
2018-06-18T11:30:36.281Z,34.99
2018-06-18T11:33:06.041Z,35.65
2018-06-18T11:35:36.494Z,34.98
2018-06-18T11:38:06.305Z,36.58
2018-06-18T11:40:36.084Z,37.39
2018-06-18T11:43:05.870Z,37.11
2018-06-18T11:45:35.663Z,38.01
2018-06-18T11:48:25.092Z,37.20
2018-06-18T11:50:54.767Z,37.18
2018-06-18T11:53:24.541Z,36.27
2018-06-18T11:55:55.023Z,35.79
2018-06-18T11:58:29.924Z,37.25
2018-06-18T12:01:05.294Z,37.89
2018-06-18T12:03:39.927Z,38.64
2018-06-18T12:06:14.663Z,39.84
2018-06-18T12:08:49.291Z,39.75
2018-06-18T12:11:19.085Z,38.22
2018-06-18T12:13:48.825Z,38.19
2018-06-18T12:16:18.952Z,39.56
2018-06-18T12:18:48.564Z,39.91
2018-06-18T12:21:18.142Z,38.16
2018-06-18T12:23:57.037Z,36.17
2018-06-18T12:26:33.736Z,34.89
2018-06-18T12:29:07.101Z,35.34
2018-06-18T12:31:36.826Z,34.89
2018-06-18T12:34:06.570Z,34.94
2018-06-18T12:36:36.553Z,32.42
2018-06-18T12:39:09.353Z,33.30
2018-06-18T12:41:41.111Z,32.03
2018-06-18T12:44:10.945Z,32.74
2018-06-18T12:46:46.808Z,33.45
2018-06-18T12:49:21.591Z,29.75
2018-06-18T12:51:56.538Z,30.65
2018-06-18T12:54:31.449Z,31.46
2018-06-18T12:57:05.501Z,32.18
2018-06-18T12:59:35.207Z,31.46
2018-06-18T13:02:24.923Z,32.18
2018-06-18T13:04:58.534Z,32.15
2018-06-18T13:07:28.267Z,33.03
2018-06-18T13:09:58.865Z,33.86
2018-06-18T13:12:29.409Z,36.14
2018-06-18T13:14:59.652Z,35.10
2018-06-18T13:17:29.404Z,37.13
2018-06-18T13:19:58.976Z,38.12
2018-06-18T13:22:28.674Z,38.80
2018-06-18T13:24:58.240Z,40.37
2018-06-18T13:27:33.026Z,38.96
2018-06-18T13:30:02.805Z,40.54
2018-06-18T13:32:32.623Z,41.99
2018-06-18T13:35:03.342Z,42.19
2018-06-18T13:37:38.137Z,43.86
2018-06-18T13:40:12.995Z,44.15
2018-06-18T13:42:47.745Z,42.27
2018-06-18T13:45:22.584Z,43.17
2018-06-18T13:47:57.458Z,41.92
2018-06-18T13:50:27.297Z,41.87
2018-06-18T13:52:57.085Z,40.35
2018-06-18T13:55:27.917Z,39.13
2018-06-18T13:57:57.577Z,40.86
2018-06-18T14:00:27.368Z,38.79
2018-06-18T14:02:57.456Z,37.76
2018-06-18T14:05:28.627Z,40.39
2018-06-18T14:07:58.411Z,38.33
2018-06-18T14:10:28.082Z,39.45
2018-06-18T14:12:57.837Z,37.06
2018-06-18T14:15:28.300Z,37.66
2018-06-18T14:17:57.859Z,37.01
2018-06-18T14:20:28.245Z,37.10
2018-06-18T14:22:57.895Z,36.60
2018-06-18T14:25:27.756Z,37.86
2018-06-18T14:27:57.484Z,37.18
2018-06-18T14:30:32.701Z,36.25
2018-06-18T14:33:07.488Z,35.35
2018-06-18T14:35:42.784Z,37.05
2018-06-18T14:38:17.621Z,36.47
2018-06-18T14:40:47.302Z,35.66
2018-06-18T14:43:17.040Z,36.21
2018-06-18T14:45:47.181Z,36.71
2018-06-18T14:48:16.910Z,38.79
2018-06-18T14:50:46.712Z,38.52
2018-06-18T14:53:16.377Z,39.16
2018-06-18T14:55:49.103Z,40.30
2018-06-18T14:58:18.842Z,41.90
2018-06-18T15:00:48.472Z,41.53
2018-06-18T15:03:18.551Z,43.12
2018-06-18T15:05:48.467Z,42.64
2018-06-18T15:08:18.250Z,43.14
2018-06-18T15:10:55.600Z,42.37
2018-06-18T15:13:25.284Z,42.79
2018-06-18T15:16:00.672Z,42.58
2018-06-18T15:18:30.395Z,43.27
2018-06-18T15:21:02.725Z,45.53
2018-06-18T15:23:32.284Z,48.07
2018-06-18T15:26:02.098Z,47.32
2018-06-18T15:28:31.765Z,46.01
2018-06-18T15:31:01.425Z,46.72
2018-06-18T15:33:31.098Z,48.49
2018-06-18T15:36:00.706Z,47.96
2018-06-18T15:38:30.312Z,48.45
2018-06-18T15:41:00.037Z,49.77
2018-06-18T15:43:29.811Z,48.71
2018-06-18T15:45:59.469Z,48.36
2018-06-18T15:48:29.084Z,50.55
2018-06-18T15:50:58.924Z,50.56
2018-06-18T15:53:28.511Z,50.57
2018-06-18T15:55:58.247Z,52.69
2018-06-18T15:58:27.826Z,52.54
2018-06-18T16:00:57.542Z,52.78
2018-06-18T16:03:27.254Z,53.39
2018-06-18T16:05:57.049Z,52.59
2018-06-18T16:08:26.739Z,52.43
2018-06-18T16:10:56.440Z,51.40
2018-06-18T16:13:26.088Z,50.83
2018-06-18T16:15:55.836Z,51.91
2018-06-18T16:18:25.543Z,51.22
2018-06-18T16:20:55.214Z,49.59
2018-06-18T16:23:24.905Z,50.29
2018-06-18T16:25:54.705Z,48.81
2018-06-18T16:28:24.445Z,49.11
2018-06-18T16:30:54.103Z,49.42
2018-06-18T16:33:23.778Z,50.03
2018-06-18T16:35:53.468Z,48.81
2018-06-18T16:38:23.190Z,48.80
2018-06-18T16:40:52.912Z,50.17
2018-06-18T16:43:22.729Z,49.67
2018-06-18T16:45:52.420Z,50.19
2018-06-18T16:48:22.177Z,50.82
2018-06-18T16:50:51.880Z,49.88
2018-06-18T16:53:21.438Z,49.40
2018-06-18T16:55:51.187Z,49.71
2018-06-18T16:58:20.856Z,49.28
2018-06-18T17:00:50.590Z,51.06
2018-06-18T17:03:20.348Z,51.97
2018-06-18T17:05:50.557Z,52.44
2018-06-18T17:08:20.294Z,50.58
2018-06-18T17:10:49.903Z,49.89
2018-06-18T17:13:19.629Z,50.57
2018-06-18T17:15:49.495Z,50.51
2018-06-18T17:18:19.112Z,50.43
2018-06-18T17:20:48.796Z,52.61
2018-06-18T17:23:18.646Z,51.60
2018-06-18T17:25:48.389Z,53.69
2018-06-18T17:28:18.154Z,55.65
2018-06-18T17:30:48.037Z,57.66
2018-06-18T17:33:17.716Z,56.80
2018-06-18T17:35:47.393Z,55.07
2018-06-18T17:38:17.058Z,56.44
2018-06-18T17:40:46.781Z,59.90
2018-06-18T17:43:16.530Z,62.32
2018-06-18T17:45:46.287Z,64.46
2018-06-18T17:48:16.275Z,64.65
2018-06-18T17:50:45.724Z,66.66
2018-06-18T17:53:15.405Z,65.15
2018-06-18T17:55:45.124Z,63.38
2018-06-18T17:58:14.809Z,60.77
2018-06-18T18:00:44.607Z,62.88
2018-06-18T18:03:14.212Z,63.19
2018-06-18T18:05:43.934Z,63.07
2018-06-18T18:08:14.129Z,62.55
2018-06-18T18:10:43.938Z,66.02
2018-06-18T18:13:13.788Z,69.08
2018-06-18T18:15:43.547Z,67.29
2018-06-18T18:18:13.278Z,66.98
2018-06-18T18:20:43.136Z,68.39
2018-06-18T18:23:12.808Z,67.27
2018-06-18T18:25:42.652Z,67.08
2018-06-18T18:28:12.337Z,66.36
2018-06-18T18:30:42.070Z,67.96
2018-06-18T18:33:11.710Z,69.23
2018-06-18T18:35:41.392Z,70.11
2018-06-18T18:38:11.074Z,71.73
2018-06-18T18:40:40.816Z,73.04
2018-06-18T18:43:10.669Z,72.71
2018-06-18T18:45:40.313Z,73.11
2018-06-18T18:48:10.030Z,74.49
2018-06-18T18:50:39.867Z,74.69
2018-06-18T18:53:09.613Z,74.54
2018-06-18T18:55:51.484Z,74.18
2018-06-18T18:59:37.919Z,70.21
2018-06-18T19:02:07.928Z,72.93
2018-06-18T19:04:56.615Z,73.83
2018-06-18T19:07:34.094Z,71.85
2018-06-18T19:10:38.848Z,70.50
2018-06-18T19:13:17.304Z,70.94
2018-06-18T19:15:47.321Z,70.51
2018-06-18T19:18:16.977Z,70.28
2018-06-18T19:20:51.234Z,72.25
2018-06-18T19:23:22.102Z,73.10
2018-06-18T19:25:51.832Z,71.05
2018-06-18T19:28:21.665Z,70.57
2018-06-18T19:30:54.752Z,67.84
2018-06-18T19:33:30.130Z,69.32
2018-06-18T19:35:59.649Z,69.20
2018-06-18T19:38:29.443Z,68.09
2018-06-18T19:40:59.165Z,68.02
2018-06-18T19:43:29.725Z,68.04
2018-06-18T19:46:01.951Z,68.04
2018-06-18T19:48:38.170Z,69.13
2018-06-18T19:51:08.181Z,68.04
2018-06-18T19:53:38.088Z,67.70
2018-06-18T19:56:07.998Z,67.58
2018-06-18T19:58:37.560Z,67.25
2018-06-18T20:01:08.929Z,70.57
2018-06-18T20:03:39.149Z,70.94
2018-06-18T20:06:08.958Z,71.72
2018-06-18T20:08:38.705Z,71.24
2018-06-18T20:11:08.503Z,71.10
2018-06-18T20:13:38.196Z,70.11
2018-06-18T20:16:08.059Z,70.84
2018-06-18T20:18:38.788Z,70.84
2018-06-18T20:21:08.531Z,71.67
2018-06-18T20:23:38.162Z,73.03
2018-06-18T20:26:12.116Z,74.39
2018-06-18T20:28:41.808Z,72.85
2018-06-18T20:31:11.566Z,73.50
2018-06-18T20:33:45.152Z,74.32
2018-06-18T20:36:16.553Z,74.60
2018-06-18T20:38:46.134Z,73.64
2018-06-18T20:41:15.802Z,73.81
2018-06-18T20:44:03.789Z,72.96
2018-06-18T20:46:33.512Z,73.10
2018-06-18T20:49:03.220Z,73.21
2018-06-18T20:51:32.952Z,73.13
2018-06-18T20:54:03.957Z,73.37
2018-06-18T20:56:33.724Z,74.24
2018-06-18T20:59:03.792Z,74.93
2018-06-18T21:01:33.516Z,74.92
2018-06-18T21:04:03.730Z,75.07
2018-06-18T21:06:33.479Z,73.65
2018-06-18T21:09:03.428Z,74.55
2018-06-18T21:11:33.569Z,73.87
2018-06-18T21:14:03.385Z,74.12
2018-06-18T21:16:33.196Z,74.04
2018-06-18T21:19:02.761Z,74.62
2018-06-18T21:21:32.435Z,74.17
2018-06-18T21:24:02.135Z,73.29
2018-06-18T21:26:31.914Z,72.51
2018-06-18T21:29:01.543Z,71.04
2018-06-18T21:31:31.279Z,71.00
2018-06-18T21:34:00.878Z,73.30
2018-06-18T21:36:30.568Z,73.57
2018-06-18T21:39:00.285Z,74.82
2018-06-18T21:41:30.020Z,74.20
2018-06-18T21:43:59.785Z,74.90
2018-06-18T21:46:29.523Z,75.63
2018-06-18T21:48:59.107Z,74.65
2018-06-18T21:51:28.772Z,74.24
2018-06-18T21:53:58.567Z,72.54
2018-06-18T21:56:28.340Z,70.22
2018-06-18T21:58:58.128Z,71.98
2018-06-18T22:01:38.089Z,71.79
2018-06-18T22:04:08.314Z,71.74
2018-06-18T22:06:38.432Z,72.34
2018-06-18T22:09:12.939Z,70.56
2018-06-18T22:11:44.171Z,71.52
2018-06-18T22:14:14.583Z,72.72
2018-06-18T22:16:44.246Z,73.40
2018-06-18T22:19:14.012Z,74.42
2018-06-18T22:21:43.690Z,74.76
2018-06-18T22:24:13.386Z,75.08
2018-06-18T22:26:43.142Z,75.08
2018-06-18T22:29:13.286Z,75.40
2018-06-18T22:31:42.984Z,73.00
2018-06-18T22:34:12.762Z,74.50
2018-06-18T22:36:42.599Z,73.65
2018-06-18T22:39:13.412Z,73.67
2018-06-18T22:41:43.152Z,73.47
2018-06-18T22:44:13.518Z,74.11
2018-06-18T22:46:43.228Z,73.85
2018-06-18T22:49:12.883Z,72.05
2018-06-18T22:51:42.690Z,72.52
2018-06-18T22:54:12.468Z,72.54
2018-06-18T22:56:42.024Z,73.17
2018-06-18T22:59:11.720Z,72.77
2018-06-18T23:01:41.459Z,73.50
2018-06-18T23:04:11.276Z,72.97
2018-06-18T23:06:41.185Z,73.17
2018-06-18T23:09:12.125Z,72.89
2018-06-18T23:11:41.927Z,72.76
2018-06-18T23:14:16.130Z,73.51
2018-06-18T23:16:46.010Z,73.39
2018-06-18T23:19:15.720Z,72.45
2018-06-18T23:21:45.403Z,71.91
2018-06-18T23:24:15.864Z,71.40
2018-06-18T23:26:45.561Z,72.99
2018-06-18T23:29:17.036Z,73.59
2018-06-18T23:31:46.832Z,73.78
2018-06-18T23:34:16.568Z,72.61
2018-06-18T23:36:46.220Z,73.45
2018-06-18T23:39:15.952Z,72.23
2018-06-18T23:41:49.908Z,72.89
2018-06-18T23:44:19.699Z,73.26
2018-06-18T23:46:49.613Z,73.28
2018-06-18T23:49:19.196Z,73.85
2018-06-18T23:51:49.106Z,73.24
2018-06-18T23:54:18.800Z,74.21
2018-06-18T23:56:48.556Z,74.32
2018-06-18T23:59:18.292Z,73.66
